sensor_id;sensor_type;location;lat;lon;timestamp;P1;durP1;ratioP1;P2;durP2;ratioP2
57989;SDS011;58373;51.824;5.564;2022-10-22T00:01:03;7.80;;;4.22;;
57989;SDS011;58373;51.824;5.564;2022-10-22T00:03:29;7.95;;;3.60;;
57989;SDS011;58373;51.824;5.564;2022-10-22T00:05:54;8.52;;;3.58;;
57989;SDS011;58373;51.824;5.564;2022-10-22T00:08:20;6.10;;;3.40;;
57989;SDS011;58373;51.824;5.564;2022-10-22T00:10:45;7.47;;;3.90;;
57989;SDS011;58373;51.824;5.564;2022-10-22T00:13:11;7.55;;;4.05;;
57989;SDS011;58373;51.824;5.564;2022-10-22T00:15:36;7.40;;;4.85;;
57989;SDS011;58373;51.824;5.564;2022-10-22T00:18:02;7.35;;;3.85;;
57989;SDS011;58373;51.824;5.564;2022-10-22T00:20:27;5.78;;;3.38;;
57989;SDS011;58373;51.824;5.564;2022-10-22T00:22:52;7.85;;;3.20;;
57989;SDS011;58373;51.824;5.564;2022-10-22T00:25:18;6.45;;;3.58;;
57989;SDS011;58373;51.824;5.564;2022-10-22T00:27:43;7.38;;;3.40;;
57989;SDS011;58373;51.824;5.564;2022-10-22T00:30:09;7.30;;;3.33;;
57989;SDS011;58373;51.824;5.564;2022-10-22T00:32:35;9.43;;;3.70;;
57989;SDS011;58373;51.824;5.564;2022-10-22T00:35:00;6.75;;;3.88;;
57989;SDS011;58373;51.824;5.564;2022-10-22T00:37:28;8.07;;;3.92;;
57989;SDS011;58373;51.824;5.564;2022-10-22T00:39:54;6.50;;;3.30;;
57989;SDS011;58373;51.824;5.564;2022-10-22T00:42:21;9.65;;;4.38;;
57989;SDS011;58373;51.824;5.564;2022-10-22T00:47:40;8.20;;;3.90;;
57989;SDS011;58373;51.824;5.564;2022-10-22T00:50:17;10.40;;;4.10;;
57989;SDS011;58373;51.824;5.564;2022-10-22T00:52:46;7.72;;;3.97;;
57989;SDS011;58373;51.824;5.564;2022-10-22T00:55:12;8.07;;;4.45;;
57989;SDS011;58373;51.824;5.564;2022-10-22T00:57:38;7.80;;;3.85;;
57989;SDS011;58373;51.824;5.564;2022-10-22T01:00:04;5.60;;;3.28;;
57989;SDS011;58373;51.824;5.564;2022-10-22T01:02:31;8.68;;;4.00;;
57989;SDS011;58373;51.824;5.564;2022-10-22T01:04:57;7.47;;;3.22;;
57989;SDS011;58373;51.824;5.564;2022-10-22T01:07:22;7.60;;;4.13;;
57989;SDS011;58373;51.824;5.564;2022-10-22T01:09:54;8.43;;;3.38;;
57989;SDS011;58373;51.824;5.564;2022-10-22T01:15:51;8.20;;;3.80;;
57989;SDS011;58373;51.824;5.564;2022-10-22T01:18:20;7.50;;;3.38;;
57989;SDS011;58373;51.824;5.564;2022-10-22T01:26:27;6.93;;;3.60;;
57989;SDS011;58373;51.824;5.564;2022-10-22T01:29:06;8.18;;;3.80;;
57989;SDS011;58373;51.824;5.564;2022-10-22T01:31:46;6.80;;;3.38;;
57989;SDS011;58373;51.824;5.564;2022-10-22T01:34:17;8.60;;;3.58;;
57989;SDS011;58373;51.824;5.564;2022-10-22T01:36:44;7.78;;;3.83;;
57989;SDS011;58373;51.824;5.564;2022-10-22T01:39:11;6.90;;;3.97;;
57989;SDS011;58373;51.824;5.564;2022-10-22T01:41:40;5.60;;;3.28;;
57989;SDS011;58373;51.824;5.564;2022-10-22T01:47:01;7.63;;;4.07;;
57989;SDS011;58373;51.824;5.564;2022-10-22T01:52:37;9.50;;;4.25;;
57989;SDS011;58373;51.824;5.564;2022-10-22T01:55:12;6.20;;;3.40;;
57989;SDS011;58373;51.824;5.564;2022-10-22T01:58:09;8.00;;;4.10;;
57989;SDS011;58373;51.824;5.564;2022-10-22T02:00:44;8.75;;;4.30;;
57989;SDS011;58373;51.824;5.564;2022-10-22T02:03:20;8.73;;;3.95;;
57989;SDS011;58373;51.824;5.564;2022-10-22T02:05:58;5.47;;;3.67;;
57989;SDS011;58373;51.824;5.564;2022-10-22T02:08:30;9.90;;;4.25;;
57989;SDS011;58373;51.824;5.564;2022-10-22T02:10:57;7.47;;;4.05;;
57989;SDS011;58373;51.824;5.564;2022-10-22T02:13:28;8.98;;;4.07;;
57989;SDS011;58373;51.824;5.564;2022-10-22T02:16:00;8.35;;;4.22;;
57989;SDS011;58373;51.824;5.564;2022-10-22T02:18:28;7.55;;;4.03;;
57989;SDS011;58373;51.824;5.564;2022-10-22T02:20:56;11.48;;;4.25;;
57989;SDS011;58373;51.824;5.564;2022-10-22T02:23:23;9.35;;;5.13;;
57989;SDS011;58373;51.824;5.564;2022-10-22T02:25:50;8.85;;;4.10;;
57989;SDS011;58373;51.824;5.564;2022-10-22T02:28:23;10.85;;;5.10;;
57989;SDS011;58373;51.824;5.564;2022-10-22T02:30:57;10.68;;;4.72;;
57989;SDS011;58373;51.824;5.564;2022-10-22T02:33:30;10.60;;;5.63;;
57989;SDS011;58373;51.824;5.564;2022-10-22T02:36:00;8.35;;;4.60;;
57989;SDS011;58373;51.824;5.564;2022-10-22T02:38:28;10.63;;;5.35;;
57989;SDS011;58373;51.824;5.564;2022-10-22T02:40:54;9.35;;;5.68;;
57989;SDS011;58373;51.824;5.564;2022-10-22T02:43:20;9.80;;;5.38;;
57989;SDS011;58373;51.824;5.564;2022-10-22T02:45:48;10.85;;;4.60;;
57989;SDS011;58373;51.824;5.564;2022-10-22T02:48:14;10.35;;;5.20;;
57989;SDS011;58373;51.824;5.564;2022-10-22T02:50:39;8.55;;;5.38;;
57989;SDS011;58373;51.824;5.564;2022-10-22T02:53:05;10.32;;;5.15;;
57989;SDS011;58373;51.824;5.564;2022-10-22T02:55:30;8.77;;;5.43;;
57989;SDS011;58373;51.824;5.564;2022-10-22T02:57:55;10.10;;;5.28;;
57989;SDS011;58373;51.824;5.564;2022-10-22T03:00:21;10.35;;;5.00;;
57989;SDS011;58373;51.824;5.564;2022-10-22T03:02:46;10.82;;;5.63;;
57989;SDS011;58373;51.824;5.564;2022-10-22T03:05:11;9.43;;;5.07;;
57989;SDS011;58373;51.824;5.564;2022-10-22T03:07:37;7.65;;;5.10;;
57989;SDS011;58373;51.824;5.564;2022-10-22T03:10:03;11.65;;;6.32;;
57989;SDS011;58373;51.824;5.564;2022-10-22T03:12:29;8.88;;;5.55;;
57989;SDS011;58373;51.824;5.564;2022-10-22T03:14:54;11.55;;;5.75;;
57989;SDS011;58373;51.824;5.564;2022-10-22T03:17:20;10.70;;;4.90;;
57989;SDS011;58373;51.824;5.564;2022-10-22T03:19:45;10.52;;;5.50;;
57989;SDS011;58373;51.824;5.564;2022-10-22T03:22:21;8.15;;;5.43;;
57989;SDS011;58373;51.824;5.564;2022-10-22T03:24:51;15.68;;;6.28;;
57989;SDS011;58373;51.824;5.564;2022-10-22T03:27:20;10.55;;;5.60;;
57989;SDS011;58373;51.824;5.564;2022-10-22T03:29:46;10.43;;;5.38;;
57989;SDS011;58373;51.824;5.564;2022-10-22T03:32:15;10.95;;;5.93;;
57989;SDS011;58373;51.824;5.564;2022-10-22T03:34:41;8.52;;;5.47;;
57989;SDS011;58373;51.824;5.564;2022-10-22T03:37:06;10.80;;;5.07;;
57989;SDS011;58373;51.824;5.564;2022-10-22T03:39:32;11.98;;;5.05;;
57989;SDS011;58373;51.824;5.564;2022-10-22T03:42:00;10.15;;;4.55;;
57989;SDS011;58373;51.824;5.564;2022-10-22T03:44:26;11.07;;;5.30;;
57989;SDS011;58373;51.824;5.564;2022-10-22T03:46:52;12.25;;;5.65;;
57989;SDS011;58373;51.824;5.564;2022-10-22T03:49:18;9.27;;;5.05;;
57989;SDS011;58373;51.824;5.564;2022-10-22T03:51:43;9.88;;;4.70;;
57989;SDS011;58373;51.824;5.564;2022-10-22T03:54:09;10.55;;;5.35;;
57989;SDS011;58373;51.824;5.564;2022-10-22T03:56:34;11.75;;;5.00;;
57989;SDS011;58373;51.824;5.564;2022-10-22T03:59:00;10.05;;;4.72;;
57989;SDS011;58373;51.824;5.564;2022-10-22T04:01:26;10.82;;;4.95;;
57989;SDS011;58373;51.824;5.564;2022-10-22T04:03:53;10.20;;;4.90;;
57989;SDS011;58373;51.824;5.564;2022-10-22T04:06:18;6.60;;;4.20;;
57989;SDS011;58373;51.824;5.564;2022-10-22T04:08:44;11.65;;;5.35;;
57989;SDS011;58373;51.824;5.564;2022-10-22T04:11:10;7.95;;;5.45;;
57989;SDS011;58373;51.824;5.564;2022-10-22T04:13:37;8.65;;;5.03;;
57989;SDS011;58373;51.824;5.564;2022-10-22T04:16:07;12.18;;;5.35;;
57989;SDS011;58373;51.824;5.564;2022-10-22T04:18:34;9.95;;;4.88;;
57989;SDS011;58373;51.824;5.564;2022-10-22T04:21:00;11.13;;;5.60;;
57989;SDS011;58373;51.824;5.564;2022-10-22T04:23:25;9.93;;;5.15;;
57989;SDS011;58373;51.824;5.564;2022-10-22T04:25:56;11.55;;;5.03;;
57989;SDS011;58373;51.824;5.564;2022-10-22T04:28:25;9.95;;;5.18;;
57989;SDS011;58373;51.824;5.564;2022-10-22T04:30:51;10.18;;;4.85;;
57989;SDS011;58373;51.824;5.564;2022-10-22T04:33:16;11.10;;;5.05;;
57989;SDS011;58373;51.824;5.564;2022-10-22T04:35:42;9.88;;;5.32;;
57989;SDS011;58373;51.824;5.564;2022-10-22T04:38:07;9.45;;;5.00;;
57989;SDS011;58373;51.824;5.564;2022-10-22T04:40:33;11.43;;;4.88;;
57989;SDS011;58373;51.824;5.564;2022-10-22T04:42:58;8.65;;;4.60;;
57989;SDS011;58373;51.824;5.564;2022-10-22T04:45:23;11.73;;;4.28;;
57989;SDS011;58373;51.824;5.564;2022-10-22T04:47:49;10.90;;;4.30;;
57989;SDS011;58373;51.824;5.564;2022-10-22T04:50:14;17.63;;;5.05;;
57989;SDS011;58373;51.824;5.564;2022-10-22T04:52:40;9.73;;;4.55;;
57989;SDS011;58373;51.824;5.564;2022-10-22T04:55:05;10.25;;;4.88;;
57989;SDS011;58373;51.824;5.564;2022-10-22T04:57:31;11.05;;;4.32;;
57989;SDS011;58373;51.824;5.564;2022-10-22T04:59:56;11.10;;;4.93;;
57989;SDS011;58373;51.824;5.564;2022-10-22T05:02:22;10.48;;;4.90;;
57989;SDS011;58373;51.824;5.564;2022-10-22T05:04:47;11.57;;;4.38;;
57989;SDS011;58373;51.824;5.564;2022-10-22T05:07:12;8.95;;;4.10;;
57989;SDS011;58373;51.824;5.564;2022-10-22T05:09:38;11.18;;;4.68;;
57989;SDS011;58373;51.824;5.564;2022-10-22T05:12:03;11.98;;;5.07;;
57989;SDS011;58373;51.824;5.564;2022-10-22T05:14:30;9.48;;;4.55;;
57989;SDS011;58373;51.824;5.564;2022-10-22T05:16:56;11.65;;;4.70;;
57989;SDS011;58373;51.824;5.564;2022-10-22T05:19:26;9.52;;;4.30;;
57989;SDS011;58373;51.824;5.564;2022-10-22T05:21:54;11.38;;;4.80;;
57989;SDS011;58373;51.824;5.564;2022-10-22T05:24:24;12.93;;;4.97;;
57989;SDS011;58373;51.824;5.564;2022-10-22T05:26:51;10.60;;;4.40;;
57989;SDS011;58373;51.824;5.564;2022-10-22T05:29:18;11.40;;;4.53;;
57989;SDS011;58373;51.824;5.564;2022-10-22T05:31:44;14.40;;;4.47;;
57989;SDS011;58373;51.824;5.564;2022-10-22T05:34:09;9.88;;;4.75;;
57989;SDS011;58373;51.824;5.564;2022-10-22T05:36:35;9.77;;;4.55;;
57989;SDS011;58373;51.824;5.564;2022-10-22T05:39:00;8.13;;;3.75;;
57989;SDS011;58373;51.824;5.564;2022-10-22T05:41:26;11.10;;;4.82;;
57989;SDS011;58373;51.824;5.564;2022-10-22T05:43:58;11.02;;;4.35;;
57989;SDS011;58373;51.824;5.564;2022-10-22T05:46:28;11.43;;;4.55;;
57989;SDS011;58373;51.824;5.564;2022-10-22T05:48:56;11.63;;;5.00;;
57989;SDS011;58373;51.824;5.564;2022-10-22T05:51:24;12.68;;;4.70;;
57989;SDS011;58373;51.824;5.564;2022-10-22T05:53:51;12.13;;;4.57;;
57989;SDS011;58373;51.824;5.564;2022-10-22T05:56:19;9.18;;;4.25;;
57989;SDS011;58373;51.824;5.564;2022-10-22T05:58:45;13.52;;;4.75;;
57989;SDS011;58373;51.824;5.564;2022-10-22T06:01:15;9.23;;;4.18;;
57989;SDS011;58373;51.824;5.564;2022-10-22T06:03:45;10.73;;;4.18;;
57989;SDS011;58373;51.824;5.564;2022-10-22T06:08:42;9.95;;;4.03;;
57989;SDS011;58373;51.824;5.564;2022-10-22T06:11:08;14.00;;;4.22;;
57989;SDS011;58373;51.824;5.564;2022-10-22T06:13:34;9.82;;;4.32;;
57989;SDS011;58373;51.824;5.564;2022-10-22T06:15:59;13.07;;;4.88;;
57989;SDS011;58373;51.824;5.564;2022-10-22T06:18:25;15.95;;;5.72;;
57989;SDS011;58373;51.824;5.564;2022-10-22T06:20:50;8.63;;;4.05;;
57989;SDS011;58373;51.824;5.564;2022-10-22T06:23:16;11.32;;;4.35;;
57989;SDS011;58373;51.824;5.564;2022-10-22T06:25:41;12.75;;;4.43;;
57989;SDS011;58373;51.824;5.564;2022-10-22T06:28:07;11.25;;;4.40;;
57989;SDS011;58373;51.824;5.564;2022-10-22T06:30:33;10.20;;;3.90;;
57989;SDS011;58373;51.824;5.564;2022-10-22T06:33:00;10.52;;;4.22;;
57989;SDS011;58373;51.824;5.564;2022-10-22T06:35:26;10.68;;;4.65;;
57989;SDS011;58373;51.824;5.564;2022-10-22T06:37:51;8.30;;;3.97;;
57989;SDS011;58373;51.824;5.564;2022-10-22T06:40:17;15.05;;;4.65;;
57989;SDS011;58373;51.824;5.564;2022-10-22T06:42:43;10.40;;;5.05;;
57989;SDS011;58373;51.824;5.564;2022-10-22T06:45:08;10.57;;;4.60;;
57989;SDS011;58373;51.824;5.564;2022-10-22T06:47:34;10.32;;;4.00;;
57989;SDS011;58373;51.824;5.564;2022-10-22T06:49:59;13.18;;;4.32;;
57989;SDS011;58373;51.824;5.564;2022-10-22T06:52:25;8.88;;;4.40;;
57989;SDS011;58373;51.824;5.564;2022-10-22T06:54:50;11.57;;;4.70;;
57989;SDS011;58373;51.824;5.564;2022-10-22T06:57:15;11.38;;;5.10;;
57989;SDS011;58373;51.824;5.564;2022-10-22T06:59:44;8.27;;;4.13;;
57989;SDS011;58373;51.824;5.564;2022-10-22T07:02:10;14.77;;;4.38;;
57989;SDS011;58373;51.824;5.564;2022-10-22T07:04:35;9.15;;;3.55;;
57989;SDS011;58373;51.824;5.564;2022-10-22T07:07:01;10.75;;;3.72;;
57989;SDS011;58373;51.824;5.564;2022-10-22T07:09:26;9.32;;;4.53;;
57989;SDS011;58373;51.824;5.564;2022-10-22T07:11:51;12.70;;;4.25;;
57989;SDS011;58373;51.824;5.564;2022-10-22T07:14:17;10.27;;;3.88;;
57989;SDS011;58373;51.824;5.564;2022-10-22T07:16:42;10.20;;;4.03;;
57989;SDS011;58373;51.824;5.564;2022-10-22T07:19:09;11.30;;;4.13;;
57989;SDS011;58373;51.824;5.564;2022-10-22T07:21:35;8.52;;;4.10;;
57989;SDS011;58373;51.824;5.564;2022-10-22T07:24:00;9.43;;;3.65;;
57989;SDS011;58373;51.824;5.564;2022-10-22T07:26:26;10.90;;;4.35;;
57989;SDS011;58373;51.824;5.564;2022-10-22T07:28:54;10.57;;;3.42;;
57989;SDS011;58373;51.824;5.564;2022-10-22T07:31:20;11.25;;;3.97;;
57989;SDS011;58373;51.824;5.564;2022-10-22T07:33:46;8.27;;;3.03;;
57989;SDS011;58373;51.824;5.564;2022-10-22T07:36:12;7.70;;;3.13;;
57989;SDS011;58373;51.824;5.564;2022-10-22T07:38:42;9.45;;;3.55;;
57989;SDS011;58373;51.824;5.564;2022-10-22T07:41:08;9.50;;;3.15;;
57989;SDS011;58373;51.824;5.564;2022-10-22T07:43:35;9.43;;;3.42;;
57989;SDS011;58373;51.824;5.564;2022-10-22T07:46:00;12.85;;;3.42;;
57989;SDS011;58373;51.824;5.564;2022-10-22T07:48:26;7.32;;;3.30;;
57989;SDS011;58373;51.824;5.564;2022-10-22T07:50:52;11.38;;;3.47;;
57989;SDS011;58373;51.824;5.564;2022-10-22T07:53:17;10.73;;;2.75;;
57989;SDS011;58373;51.824;5.564;2022-10-22T07:55:43;7.97;;;2.80;;
57989;SDS011;58373;51.824;5.564;2022-10-22T07:58:11;10.75;;;2.65;;
57989;SDS011;58373;51.824;5.564;2022-10-22T08:00:36;12.98;;;2.97;;
57989;SDS011;58373;51.824;5.564;2022-10-22T08:03:02;8.77;;;2.88;;
57989;SDS011;58373;51.824;5.564;2022-10-22T08:05:27;13.15;;;3.60;;
57989;SDS011;58373;51.824;5.564;2022-10-22T08:07:52;8.45;;;2.97;;
57989;SDS011;58373;51.824;5.564;2022-10-22T08:10:17;8.80;;;2.50;;
57989;SDS011;58373;51.824;5.564;2022-10-22T08:12:43;7.93;;;2.47;;
57989;SDS011;58373;51.824;5.564;2022-10-22T08:15:08;7.82;;;2.45;;
57989;SDS011;58373;51.824;5.564;2022-10-22T08:17:34;9.27;;;2.85;;
57989;SDS011;58373;51.824;5.564;2022-10-22T08:19:59;6.80;;;2.40;;
57989;SDS011;58373;51.824;5.564;2022-10-22T08:22:25;10.95;;;3.05;;
57989;SDS011;58373;51.824;5.564;2022-10-22T08:24:50;6.20;;;2.20;;
57989;SDS011;58373;51.824;5.564;2022-10-22T08:27:15;7.97;;;2.58;;
57989;SDS011;58373;51.824;5.564;2022-10-22T08:29:41;9.02;;;2.15;;
57989;SDS011;58373;51.824;5.564;2022-10-22T08:32:06;11.02;;;3.15;;
57989;SDS011;58373;51.824;5.564;2022-10-22T08:34:32;7.63;;;2.45;;
57989;SDS011;58373;51.824;5.564;2022-10-22T08:36:57;12.60;;;2.95;;
57989;SDS011;58373;51.824;5.564;2022-10-22T08:39:22;9.98;;;3.15;;
57989;SDS011;58373;51.824;5.564;2022-10-22T08:50:22;10.02;;;2.47;;
57989;SDS011;58373;51.824;5.564;2022-10-22T08:52:51;10.23;;;2.20;;
57989;SDS011;58373;51.824;5.564;2022-10-22T08:55:20;12.25;;;3.13;;
57989;SDS011;58373;51.824;5.564;2022-10-22T08:58:52;9.57;;;2.47;;
57989;SDS011;58373;51.824;5.564;2022-10-22T09:00:48;12.10;;;2.95;;
57989;SDS011;58373;51.824;5.564;2022-10-22T09:06:28;12.85;;;3.20;;
57989;SDS011;58373;51.824;5.564;2022-10-22T09:08:56;8.88;;;2.40;;
57989;SDS011;58373;51.824;5.564;2022-10-22T09:13:52;11.50;;;2.58;;
57989;SDS011;58373;51.824;5.564;2022-10-22T09:16:21;9.82;;;2.40;;
57989;SDS011;58373;51.824;5.564;2022-10-22T09:18:59;11.68;;;3.10;;
57989;SDS011;58373;51.824;5.564;2022-10-22T09:24:44;7.38;;;2.13;;
57989;SDS011;58373;51.824;5.564;2022-10-22T09:27:25;9.18;;;2.90;;
57989;SDS011;58373;51.824;5.564;2022-10-22T09:29:52;11.90;;;3.33;;
57989;SDS011;58373;51.824;5.564;2022-10-22T09:32:18;11.32;;;2.58;;
57989;SDS011;58373;51.824;5.564;2022-10-22T09:34:44;9.15;;;2.60;;
57989;SDS011;58373;51.824;5.564;2022-10-22T09:37:15;10.23;;;2.97;;
57989;SDS011;58373;51.824;5.564;2022-10-22T09:39:46;10.23;;;3.00;;
57989;SDS011;58373;51.824;5.564;2022-10-22T09:42:15;12.68;;;3.60;;
57989;SDS011;58373;51.824;5.564;2022-10-22T09:44:42;9.10;;;2.85;;
57989;SDS011;58373;51.824;5.564;2022-10-22T09:47:25;11.20;;;3.55;;
57989;SDS011;58373;51.824;5.564;2022-10-22T09:52:33;7.90;;;2.55;;
57989;SDS011;58373;51.824;5.564;2022-10-22T09:55:00;10.77;;;3.03;;
57989;SDS011;58373;51.824;5.564;2022-10-22T09:57:30;9.90;;;3.70;;
57989;SDS011;58373;51.824;5.564;2022-10-22T09:59:56;10.90;;;3.60;;
57989;SDS011;58373;51.824;5.564;2022-10-22T10:02:22;11.25;;;3.45;;
57989;SDS011;58373;51.824;5.564;2022-10-22T10:04:52;9.50;;;3.20;;
57989;SDS011;58373;51.824;5.564;2022-10-22T10:07:20;7.22;;;2.58;;
57989;SDS011;58373;51.824;5.564;2022-10-22T10:09:48;8.95;;;2.88;;
57989;SDS011;58373;51.824;5.564;2022-10-22T10:13:16;9.60;;;2.78;;
57989;SDS011;58373;51.824;5.564;2022-10-22T10:15:21;10.73;;;3.67;;
57989;SDS011;58373;51.824;5.564;2022-10-22T10:26:35;10.68;;;3.63;;
57989;SDS011;58373;51.824;5.564;2022-10-22T10:31:48;14.10;;;4.43;;
57989;SDS011;58373;51.824;5.564;2022-10-22T10:40:22;12.20;;;3.60;;
57989;SDS011;58373;51.824;5.564;2022-10-22T10:42:31;9.35;;;3.08;;
57989;SDS011;58373;51.824;5.564;2022-10-22T10:45:04;10.77;;;2.92;;
57989;SDS011;58373;51.824;5.564;2022-10-22T11:01:21;12.05;;;3.75;;
57989;SDS011;58373;51.824;5.564;2022-10-22T11:03:54;10.52;;;3.13;;
57989;SDS011;58373;51.824;5.564;2022-10-22T11:06:47;9.20;;;3.13;;
57989;SDS011;58373;51.824;5.564;2022-10-22T11:09:23;13.05;;;3.30;;
57989;SDS011;58373;51.824;5.564;2022-10-22T11:11:58;10.60;;;3.03;;
57989;SDS011;58373;51.824;5.564;2022-10-22T11:17:15;8.32;;;2.95;;
57989;SDS011;58373;51.824;5.564;2022-10-22T11:22:56;10.88;;;3.13;;
57989;SDS011;58373;51.824;5.564;2022-10-22T11:25:29;9.85;;;3.05;;
57989;SDS011;58373;51.824;5.564;2022-10-22T11:28:00;12.35;;;3.30;;
57989;SDS011;58373;51.824;5.564;2022-10-22T11:30:34;11.85;;;3.17;;
57989;SDS011;58373;51.824;5.564;2022-10-22T11:33:01;10.13;;;2.80;;
57989;SDS011;58373;51.824;5.564;2022-10-22T11:35:31;9.30;;;3.00;;
57989;SDS011;58373;51.824;5.564;2022-10-22T11:37:59;11.07;;;3.20;;
57989;SDS011;58373;51.824;5.564;2022-10-22T11:43:06;11.25;;;3.10;;
57989;SDS011;58373;51.824;5.564;2022-10-22T11:45:37;9.27;;;2.83;;
57989;SDS011;58373;51.824;5.564;2022-10-22T11:48:05;9.48;;;3.15;;
57989;SDS011;58373;51.824;5.564;2022-10-22T11:55:49;7.97;;;2.90;;
57989;SDS011;58373;51.824;5.564;2022-10-22T11:58:43;10.95;;;2.85;;
57989;SDS011;58373;51.824;5.564;2022-10-22T12:06:24;10.57;;;3.13;;
57989;SDS011;58373;51.824;5.564;2022-10-22T12:13:52;12.00;;;3.90;;
57989;SDS011;58373;51.824;5.564;2022-10-22T12:16:28;11.45;;;3.30;;
57989;SDS011;58373;51.824;5.564;2022-10-22T12:21:51;11.93;;;3.42;;
57989;SDS011;58373;51.824;5.564;2022-10-22T12:24:30;10.95;;;3.30;;
57989;SDS011;58373;51.824;5.564;2022-10-22T12:26:59;12.43;;;3.85;;
57989;SDS011;58373;51.824;5.564;2022-10-22T12:29:24;12.40;;;4.00;;
57989;SDS011;58373;51.824;5.564;2022-10-22T12:31:50;11.98;;;3.80;;
57989;SDS011;58373;51.824;5.564;2022-10-22T12:34:17;9.95;;;3.60;;
57989;SDS011;58373;51.824;5.564;2022-10-22T12:36:46;16.58;;;4.20;;
57989;SDS011;58373;51.824;5.564;2022-10-22T12:39:14;15.45;;;3.75;;
57989;SDS011;58373;51.824;5.564;2022-10-22T12:41:42;10.45;;;3.50;;
57989;SDS011;58373;51.824;5.564;2022-10-22T12:44:15;14.82;;;4.20;;
57989;SDS011;58373;51.824;5.564;2022-10-22T12:46:42;12.13;;;3.40;;
57989;SDS011;58373;51.824;5.564;2022-10-22T12:49:19;12.15;;;3.13;;
57989;SDS011;58373;51.824;5.564;2022-10-22T12:51:46;12.85;;;3.85;;
57989;SDS011;58373;51.824;5.564;2022-10-22T12:54:22;10.30;;;3.35;;
57989;SDS011;58373;51.824;5.564;2022-10-22T12:56:56;10.57;;;3.30;;
57989;SDS011;58373;51.824;5.564;2022-10-22T12:59:26;12.52;;;3.63;;
57989;SDS011;58373;51.824;5.564;2022-10-22T13:01:52;12.82;;;3.50;;
57989;SDS011;58373;51.824;5.564;2022-10-22T13:07:15;13.23;;;4.03;;
57989;SDS011;58373;51.824;5.564;2022-10-22T13:12:12;13.82;;;4.07;;
57989;SDS011;58373;51.824;5.564;2022-10-22T13:14:43;12.13;;;3.75;;
57989;SDS011;58373;51.824;5.564;2022-10-22T13:17:20;10.40;;;3.63;;
57989;SDS011;58373;51.824;5.564;2022-10-22T13:20:03;12.02;;;3.90;;
57989;SDS011;58373;51.824;5.564;2022-10-22T13:22:40;11.80;;;3.72;;
57989;SDS011;58373;51.824;5.564;2022-10-22T13:25:23;13.77;;;3.60;;
57989;SDS011;58373;51.824;5.564;2022-10-22T13:27:51;12.82;;;3.45;;
57989;SDS011;58373;51.824;5.564;2022-10-22T13:32:48;14.80;;;3.97;;
57989;SDS011;58373;51.824;5.564;2022-10-22T13:35:16;13.20;;;3.60;;
57989;SDS011;58373;51.824;5.564;2022-10-22T13:37:44;13.13;;;3.88;;
57989;SDS011;58373;51.824;5.564;2022-10-22T13:40:11;12.55;;;3.40;;
57989;SDS011;58373;51.824;5.564;2022-10-22T13:42:37;10.85;;;3.50;;
57989;SDS011;58373;51.824;5.564;2022-10-22T13:45:03;12.73;;;3.70;;
57989;SDS011;58373;51.824;5.564;2022-10-22T13:47:29;12.35;;;3.35;;
57989;SDS011;58373;51.824;5.564;2022-10-22T13:49:56;15.23;;;5.05;;
57989;SDS011;58373;51.824;5.564;2022-10-22T13:52:26;17.65;;;7.32;;
57989;SDS011;58373;51.824;5.564;2022-10-22T13:54:55;14.02;;;5.30;;
57989;SDS011;58373;51.824;5.564;2022-10-22T13:57:20;10.40;;;3.70;;
57989;SDS011;58373;51.824;5.564;2022-10-22T13:59:46;11.43;;;3.45;;
57989;SDS011;58373;51.824;5.564;2022-10-22T14:02:11;11.30;;;3.75;;
57989;SDS011;58373;51.824;5.564;2022-10-22T14:04:40;11.05;;;3.55;;
57989;SDS011;58373;51.824;5.564;2022-10-22T14:07:13;12.77;;;3.80;;
57989;SDS011;58373;51.824;5.564;2022-10-22T14:09:40;10.88;;;3.33;;
57989;SDS011;58373;51.824;5.564;2022-10-22T14:12:13;11.98;;;3.70;;
57989;SDS011;58373;51.824;5.564;2022-10-22T14:14:40;12.70;;;3.50;;
57989;SDS011;58373;51.824;5.564;2022-10-22T14:17:08;12.05;;;3.80;;
57989;SDS011;58373;51.824;5.564;2022-10-22T14:20:04;13.43;;;4.20;;
57989;SDS011;58373;51.824;5.564;2022-10-22T14:22:30;11.32;;;3.83;;
57989;SDS011;58373;51.824;5.564;2022-10-22T14:24:55;12.32;;;4.03;;
57989;SDS011;58373;51.824;5.564;2022-10-22T14:27:21;11.02;;;3.63;;
57989;SDS011;58373;51.824;5.564;2022-10-22T14:29:46;11.73;;;3.75;;
57989;SDS011;58373;51.824;5.564;2022-10-22T14:32:12;11.98;;;3.80;;
57989;SDS011;58373;51.824;5.564;2022-10-22T14:34:39;11.63;;;3.95;;
57989;SDS011;58373;51.824;5.564;2022-10-22T14:37:12;10.77;;;3.80;;
57989;SDS011;58373;51.824;5.564;2022-10-22T14:39:40;15.35;;;4.00;;
57989;SDS011;58373;51.824;5.564;2022-10-22T14:42:08;10.52;;;3.72;;
57989;SDS011;58373;51.824;5.564;2022-10-22T14:44:35;11.95;;;3.70;;
57989;SDS011;58373;51.824;5.564;2022-10-22T14:47:00;11.25;;;3.60;;
57989;SDS011;58373;51.824;5.564;2022-10-22T14:49:26;10.93;;;3.50;;
57989;SDS011;58373;51.824;5.564;2022-10-22T14:51:51;12.82;;;4.13;;
57989;SDS011;58373;51.824;5.564;2022-10-22T14:54:17;13.32;;;3.78;;
57989;SDS011;58373;51.824;5.564;2022-10-22T14:56:42;12.18;;;3.65;;
57989;SDS011;58373;51.824;5.564;2022-10-22T14:59:08;10.63;;;3.22;;
57989;SDS011;58373;51.824;5.564;2022-10-22T15:01:33;11.45;;;3.40;;
57989;SDS011;58373;51.824;5.564;2022-10-22T15:03:59;10.82;;;3.42;;
57989;SDS011;58373;51.824;5.564;2022-10-22T15:06:24;10.80;;;3.55;;
57989;SDS011;58373;51.824;5.564;2022-10-22T15:08:49;12.93;;;3.67;;
57989;SDS011;58373;51.824;5.564;2022-10-22T15:11:20;12.50;;;3.58;;
57989;SDS011;58373;51.824;5.564;2022-10-22T15:13:46;10.50;;;3.38;;
57989;SDS011;58373;51.824;5.564;2022-10-22T15:16:14;15.67;;;3.50;;
57989;SDS011;58373;51.824;5.564;2022-10-22T15:18:43;12.40;;;3.65;;
57989;SDS011;58373;51.824;5.564;2022-10-22T15:21:18;12.75;;;3.38;;
57989;SDS011;58373;51.824;5.564;2022-10-22T15:23:48;12.15;;;3.40;;
57989;SDS011;58373;51.824;5.564;2022-10-22T15:26:13;12.80;;;3.45;;
57989;SDS011;58373;51.824;5.564;2022-10-22T15:28:40;12.02;;;3.00;;
57989;SDS011;58373;51.824;5.564;2022-10-22T15:31:06;12.73;;;3.63;;
57989;SDS011;58373;51.824;5.564;2022-10-22T15:33:35;14.18;;;4.20;;
57989;SDS011;58373;51.824;5.564;2022-10-22T15:36:11;11.63;;;3.75;;
57989;SDS011;58373;51.824;5.564;2022-10-22T15:38:56;12.90;;;3.80;;
57989;SDS011;58373;51.824;5.564;2022-10-22T15:41:22;9.30;;;3.13;;
57989;SDS011;58373;51.824;5.564;2022-10-22T15:43:47;9.25;;;3.53;;
57989;SDS011;58373;51.824;5.564;2022-10-22T15:46:13;13.88;;;4.10;;
57989;SDS011;58373;51.824;5.564;2022-10-22T15:48:41;10.95;;;3.83;;
57989;SDS011;58373;51.824;5.564;2022-10-22T15:51:10;11.23;;;3.78;;
57989;SDS011;58373;51.824;5.564;2022-10-22T15:53:40;13.50;;;3.75;;
57989;SDS011;58373;51.824;5.564;2022-10-22T15:56:06;12.48;;;4.13;;
57989;SDS011;58373;51.824;5.564;2022-10-22T15:58:32;12.50;;;3.67;;
57989;SDS011;58373;51.824;5.564;2022-10-22T16:01:07;11.23;;;3.70;;
57989;SDS011;58373;51.824;5.564;2022-10-22T16:03:35;11.30;;;3.85;;
57989;SDS011;58373;51.824;5.564;2022-10-22T16:06:01;11.07;;;4.03;;
57989;SDS011;58373;51.824;5.564;2022-10-22T16:08:27;13.95;;;4.50;;
57989;SDS011;58373;51.824;5.564;2022-10-22T16:10:52;11.32;;;3.83;;
57989;SDS011;58373;51.824;5.564;2022-10-22T16:13:18;12.57;;;3.90;;
57989;SDS011;58373;51.824;5.564;2022-10-22T16:15:50;13.35;;;4.38;;
57989;SDS011;58373;51.824;5.564;2022-10-22T16:18:16;14.05;;;4.93;;
57989;SDS011;58373;51.824;5.564;2022-10-22T16:20:42;13.15;;;5.15;;
57989;SDS011;58373;51.824;5.564;2022-10-22T16:23:08;15.38;;;5.75;;
57989;SDS011;58373;51.824;5.564;2022-10-22T16:25:40;13.82;;;4.63;;
57989;SDS011;58373;51.824;5.564;2022-10-22T16:28:06;11.70;;;4.85;;
57989;SDS011;58373;51.824;5.564;2022-10-22T16:30:33;14.07;;;5.25;;